Aviation Digital Data Service (ADDS)

Output produced by METARs form (2225 UTC 01 December 2021)
found at http://aviationweather.gov/metar/data/
 
KAEX 012153Z 23008KT 10SM CLR 23/13 A3006 RMK AO2 SLP182 T02330128
KAEX 011728Z 0118/0218 21007KT P6SM FEW250 
     FM020000 22003KT P6SM SKC 
     FM020800 24002KT 5SM BR SKC 
     FM021100 24002KT 1/2SM FG SKC 
     FM021400 23005KT P6SM SKC